createdAt,value
2022-10-03T00:00:11.637Z,40.92
2022-10-03T00:03:14.586Z,40.99
2022-10-03T00:05:56.921Z,41.00
2022-10-03T00:08:40.169Z,40.79
2022-10-03T00:11:25.980Z,40.75
2022-10-03T00:14:01.872Z,40.91
2022-10-03T00:16:40.370Z,41.03
2022-10-03T00:19:18.253Z,41.05
2022-10-03T00:21:59.145Z,40.91
2022-10-03T00:24:38.764Z,40.76
2022-10-03T00:27:14.382Z,40.92
2022-10-03T00:29:52.445Z,41.02
2022-10-03T00:32:34.861Z,40.75
2022-10-03T00:35:15.648Z,40.63
2022-10-03T00:37:50.348Z,40.68
2022-10-03T00:40:48.622Z,40.84
2022-10-03T00:43:58.139Z,40.69
2022-10-03T00:46:51.298Z,40.74
2022-10-03T00:49:57.860Z,40.82
2022-10-03T00:52:42.356Z,40.67
2022-10-03T00:55:22.661Z,40.66
2022-10-03T00:58:14.373Z,40.56
2022-10-03T01:00:51.363Z,40.54
2022-10-03T01:03:30.977Z,40.48
2022-10-03T01:06:24.726Z,40.53
2022-10-03T01:09:17.941Z,40.55
2022-10-03T01:12:09.029Z,40.50
2022-10-03T01:14:54.692Z,40.42
2022-10-03T01:17:35.508Z,40.44
2022-10-03T01:20:24.172Z,40.40
2022-10-03T01:23:17.891Z,40.27
2022-10-03T01:25:54.294Z,40.47
2022-10-03T01:29:00.825Z,40.33
2022-10-03T01:31:36.124Z,40.41
2022-10-03T01:34:12.270Z,40.21
2022-10-03T01:36:49.980Z,40.38
2022-10-03T01:39:29.987Z,40.16
2022-10-03T01:42:02.430Z,40.35
2022-10-03T01:44:41.714Z,40.10
2022-10-03T01:47:26.230Z,40.14
2022-10-03T01:50:01.942Z,40.15
2022-10-03T01:52:39.088Z,40.34
2022-10-03T01:55:17.045Z,40.07
2022-10-03T01:57:51.529Z,40.05
2022-10-03T02:00:23.414Z,40.27
2022-10-03T02:03:01.555Z,39.96
2022-10-03T02:05:43.095Z,40.20
2022-10-03T02:08:25.029Z,40.15
2022-10-03T02:11:01.585Z,40.01
2022-10-03T02:13:40.446Z,39.91
2022-10-03T02:16:15.706Z,40.23
2022-10-03T02:18:50.565Z,40.19
2022-10-03T02:21:22.070Z,39.91
2022-10-03T02:23:52.901Z,40.27
2022-10-03T02:26:58.617Z,39.98
2022-10-03T02:29:40.483Z,40.15
2022-10-03T02:32:36.409Z,40.07
2022-10-03T02:35:46.471Z,40.33
2022-10-03T02:38:30.194Z,40.13
2022-10-03T02:41:23.194Z,40.21
2022-10-03T02:44:13.449Z,39.93
2022-10-03T02:47:08.537Z,40.14
2022-10-03T02:50:03.810Z,40.07
2022-10-03T02:53:08.204Z,39.94
2022-10-03T02:55:51.966Z,40.12
2022-10-03T02:58:49.816Z,40.23
2022-10-03T03:01:38.382Z,40.13
2022-10-03T03:04:57.569Z,40.03
2022-10-03T03:07:52.676Z,40.11
2022-10-03T03:10:40.900Z,39.95
2022-10-03T03:13:42.364Z,39.96
2022-10-03T03:16:37.037Z,39.94
2022-10-03T03:19:14.524Z,40.01
2022-10-03T03:21:52.381Z,39.84
2022-10-03T03:24:50.709Z,39.94
2022-10-03T03:27:33.982Z,39.60
2022-10-03T03:30:06.869Z,39.93
2022-10-03T03:32:57.925Z,39.87
2022-10-03T03:35:35.329Z,39.78
2022-10-03T03:38:16.012Z,39.81
2022-10-03T03:40:57.045Z,39.83
2022-10-03T03:43:44.826Z,39.79
2022-10-03T03:46:35.519Z,39.67
2022-10-03T03:49:41.596Z,39.79
2022-10-03T03:52:31.933Z,39.67
2022-10-03T03:55:15.158Z,39.63
2022-10-03T03:58:08.089Z,39.56
2022-10-03T04:00:54.619Z,39.69
2022-10-03T04:03:37.102Z,39.72
2022-10-03T04:06:23.812Z,39.56
2022-10-03T04:09:10.212Z,39.59
2022-10-03T04:11:51.837Z,39.56
2022-10-03T04:14:55.029Z,39.46
2022-10-03T04:18:02.882Z,39.56
2022-10-03T04:20:49.001Z,39.52
2022-10-03T04:23:29.452Z,39.57
2022-10-03T04:26:13.292Z,39.55
2022-10-03T04:28:59.936Z,39.38
2022-10-03T04:31:45.221Z,39.52
2022-10-03T04:34:31.164Z,39.67
2022-10-03T04:37:16.216Z,39.39
2022-10-03T04:39:54.841Z,39.64
2022-10-03T04:42:40.983Z,39.71
2022-10-03T04:45:29.224Z,39.82
2022-10-03T04:48:06.706Z,39.65
2022-10-03T04:50:43.401Z,39.63
2022-10-03T04:53:28.947Z,39.71
2022-10-03T04:56:12.900Z,39.57
2022-10-03T04:58:44.322Z,39.66
2022-10-03T05:01:18.918Z,39.48
2022-10-03T05:03:55.768Z,39.66
2022-10-03T05:06:38.996Z,39.29
2022-10-03T05:09:22.670Z,39.55
2022-10-03T05:12:03.764Z,39.32
2022-10-03T05:14:48.484Z,39.43
2022-10-03T05:17:23.609Z,39.46
2022-10-03T05:20:05.370Z,39.33
2022-10-03T05:22:52.120Z,39.43
2022-10-03T05:25:30.670Z,39.30
2022-10-03T05:28:08.247Z,39.40
2022-10-03T05:30:44.814Z,39.46
2022-10-03T05:33:24.545Z,39.12
2022-10-03T05:36:12.105Z,39.25
2022-10-03T05:39:02.660Z,39.41
2022-10-03T05:41:33.365Z,39.12
2022-10-03T05:44:11.567Z,39.16
2022-10-03T05:46:54.222Z,39.13
2022-10-03T05:50:10.983Z,39.14
2022-10-03T05:53:00.222Z,39.03
2022-10-03T05:55:43.389Z,39.21
2022-10-03T05:59:05.333Z,39.26
2022-10-03T06:02:17.460Z,39.36
2022-10-03T06:05:08.927Z,38.95
2022-10-03T06:07:53.264Z,39.09
2022-10-03T06:10:50.944Z,39.04
2022-10-03T06:13:30.633Z,38.93
2022-10-03T06:16:05.290Z,39.04
2022-10-03T06:18:57.155Z,38.26
2022-10-03T06:21:45.821Z,37.87
2022-10-03T06:24:43.261Z,37.80
2022-10-03T06:27:44.377Z,37.68
2022-10-03T06:30:23.565Z,37.69
2022-10-03T06:33:51.500Z,37.65
2022-10-03T06:36:50.440Z,37.75
2022-10-03T06:39:51.777Z,37.95
2022-10-03T06:42:40.357Z,37.98
2022-10-03T06:45:43.951Z,37.99
2022-10-03T06:48:51.807Z,38.17
2022-10-03T06:51:47.973Z,38.28
2022-10-03T06:54:51.730Z,38.54
2022-10-03T06:57:35.475Z,38.45
2022-10-03T07:00:13.451Z,38.53
2022-10-03T07:03:21.641Z,38.62
2022-10-03T07:06:10.162Z,38.85
2022-10-03T07:09:20.515Z,38.92
2022-10-03T07:12:14.286Z,39.01
2022-10-03T07:15:05.898Z,39.12
2022-10-03T07:18:03.656Z,39.48
2022-10-03T07:21:01.161Z,39.21
2022-10-03T07:24:03.438Z,39.36
2022-10-03T07:27:06.814Z,39.59
2022-10-03T07:30:01.698Z,39.72
2022-10-03T07:32:59.765Z,39.77
2022-10-03T07:36:02.675Z,39.97
2022-10-03T07:39:03.976Z,39.82
2022-10-03T07:42:00.782Z,39.81
2022-10-03T07:44:59.736Z,39.86
2022-10-03T07:48:07.469Z,39.86
2022-10-03T07:51:09.947Z,40.02
2022-10-03T07:54:01.834Z,39.85
2022-10-03T07:57:01.620Z,39.72
2022-10-03T08:00:05.331Z,39.82
2022-10-03T08:03:14.482Z,39.71
2022-10-03T08:05:56.389Z,39.92
2022-10-03T08:09:09.658Z,40.07
2022-10-03T08:12:07.206Z,40.00
2022-10-03T08:14:46.225Z,40.06
2022-10-03T08:17:41.848Z,40.05
2022-10-03T08:20:34.328Z,40.11
2022-10-03T08:23:28.312Z,40.03
2022-10-03T08:26:07.706Z,40.18
2022-10-03T08:28:53.344Z,40.19
2022-10-03T08:31:47.229Z,40.38
2022-10-03T08:34:35.932Z,40.47
2022-10-03T08:37:30.130Z,40.53
2022-10-03T08:40:32.805Z,40.51
2022-10-03T08:43:34.933Z,40.48
2022-10-03T08:46:17.481Z,40.56
2022-10-03T08:49:06.103Z,40.55
2022-10-03T08:52:21.818Z,40.59
2022-10-03T08:55:37.905Z,40.58
2022-10-03T08:58:44.952Z,40.57
2022-10-03T09:01:32.009Z,40.54
2022-10-03T09:04:53.667Z,40.51
2022-10-03T09:07:39.788Z,40.70
2022-10-03T09:10:40.050Z,40.48
2022-10-03T09:13:47.658Z,40.68
2022-10-03T09:16:35.743Z,40.47
2022-10-03T09:19:32.046Z,40.29
2022-10-03T09:22:22.635Z,40.70
2022-10-03T09:25:21.068Z,40.82
2022-10-03T09:28:43.913Z,40.72
2022-10-03T09:31:25.287Z,40.72
2022-10-03T09:34:27.552Z,40.77
2022-10-03T09:37:23.409Z,41.00
2022-10-03T09:40:20.009Z,41.27
2022-10-03T09:43:33.197Z,41.37
2022-10-03T09:46:34.679Z,41.34
2022-10-03T09:49:29.867Z,41.30
2022-10-03T09:52:14.739Z,41.17
2022-10-03T09:55:19.127Z,41.27
2022-10-03T09:58:21.808Z,41.63
2022-10-03T10:01:12.289Z,41.52
2022-10-03T10:04:37.438Z,41.35
2022-10-03T10:07:59.064Z,41.32
2022-10-03T10:10:57.858Z,41.40
2022-10-03T10:14:08.545Z,41.28
2022-10-03T10:16:58.573Z,41.24
2022-10-03T10:19:52.532Z,41.24
2022-10-03T10:22:52.776Z,41.19
2022-10-03T10:25:49.437Z,41.16
2022-10-03T10:28:53.496Z,41.18
2022-10-03T10:31:54.793Z,41.08
2022-10-03T10:35:00.545Z,41.39
2022-10-03T10:37:55.002Z,41.37
2022-10-03T10:40:42.314Z,41.31
2022-10-03T10:43:56.941Z,41.08
2022-10-03T10:47:00.773Z,41.19
2022-10-03T10:50:08.498Z,41.21
2022-10-03T10:53:22.981Z,41.39
2022-10-03T10:56:27.342Z,41.44
2022-10-03T10:59:42.153Z,41.37
2022-10-03T11:02:43.439Z,41.29
2022-10-03T11:05:42.251Z,41.31
2022-10-03T11:08:55.055Z,41.41
2022-10-03T11:12:07.088Z,41.56
2022-10-03T11:15:07.618Z,41.77
2022-10-03T11:18:10.825Z,41.91
2022-10-03T11:21:21.434Z,41.95
2022-10-03T11:24:22.293Z,42.04
2022-10-03T11:27:35.438Z,41.89
2022-10-03T11:30:44.460Z,41.91
2022-10-03T11:34:02.465Z,41.76
2022-10-03T11:37:04.125Z,42.00
2022-10-03T11:39:43.346Z,41.97
2022-10-03T11:42:29.726Z,41.74
2022-10-03T11:45:00.093Z,41.99
2022-10-03T11:47:51.263Z,41.73
2022-10-03T11:50:49.092Z,41.79
2022-10-03T11:53:27.169Z,41.87
2022-10-03T11:56:06.055Z,41.68
2022-10-03T11:58:43.950Z,41.67
2022-10-03T12:01:26.762Z,41.59
2022-10-03T12:04:03.273Z,41.73
2022-10-03T12:07:09.955Z,41.77
2022-10-03T12:09:50.215Z,41.79
2022-10-03T12:12:30.224Z,41.77
2022-10-03T12:15:04.653Z,41.88
2022-10-03T12:17:35.857Z,41.78
2022-10-03T12:20:15.854Z,41.69
2022-10-03T12:22:50.134Z,41.79
2022-10-03T12:25:23.400Z,41.54
2022-10-03T12:28:12.695Z,41.77
2022-10-03T12:30:49.164Z,41.75
2022-10-03T12:33:37.764Z,41.60
2022-10-03T12:36:15.594Z,41.73
2022-10-03T12:38:56.265Z,41.96
2022-10-03T12:41:45.993Z,42.17
2022-10-03T12:44:28.386Z,41.68
2022-10-03T12:47:11.520Z,41.90
2022-10-03T12:49:52.433Z,42.04
2022-10-03T12:52:25.364Z,42.17
2022-10-03T12:55:10.832Z,42.21
2022-10-03T12:58:01.150Z,42.19
2022-10-03T13:00:36.473Z,42.30
2022-10-03T13:03:21.903Z,42.19
2022-10-03T13:06:44.613Z,42.26
2022-10-03T13:09:25.775Z,42.24
2022-10-03T13:12:02.056Z,41.98
2022-10-03T13:15:03.519Z,42.20
2022-10-03T13:17:42.181Z,42.23
2022-10-03T13:20:18.776Z,42.29
2022-10-03T13:22:56.189Z,42.20
2022-10-03T13:25:32.015Z,42.13
2022-10-03T13:28:06.630Z,42.15
2022-10-03T13:30:47.189Z,42.01
2022-10-03T13:33:19.936Z,42.08
2022-10-03T13:36:00.326Z,41.95
2022-10-03T13:38:55.192Z,41.76
2022-10-03T13:41:32.022Z,41.73
2022-10-03T13:44:06.135Z,41.78
2022-10-03T13:46:45.540Z,41.55
2022-10-03T13:49:20.290Z,41.60
2022-10-03T13:51:58.737Z,41.45
2022-10-03T13:55:01.354Z,41.40
2022-10-03T13:57:34.932Z,41.50
2022-10-03T14:00:09.660Z,41.26
2022-10-03T14:03:15.451Z,41.23
2022-10-03T14:05:57.998Z,41.07
2022-10-03T14:09:01.432Z,41.07
2022-10-03T14:11:43.771Z,41.12
2022-10-03T14:14:45.262Z,41.26
2022-10-03T14:17:18.371Z,41.21
2022-10-03T14:20:02.332Z,41.01
2022-10-03T14:22:46.554Z,40.91
2022-10-03T14:25:24.404Z,40.88
2022-10-03T14:27:55.241Z,40.90
2022-10-03T14:30:25.067Z,40.70
2022-10-03T14:33:14.993Z,40.54
2022-10-03T14:35:54.629Z,40.54
2022-10-03T14:38:56.197Z,40.63
2022-10-03T14:41:43.617Z,40.61
2022-10-03T14:44:17.160Z,40.81
2022-10-03T14:46:52.340Z,40.72
2022-10-03T14:49:52.272Z,40.88
2022-10-03T14:52:27.032Z,40.98
2022-10-03T14:55:00.919Z,41.03
2022-10-03T14:57:47.667Z,41.24
2022-10-03T15:00:28.137Z,40.99
2022-10-03T15:02:56.337Z,41.31
2022-10-03T15:05:35.527Z,41.46
2022-10-03T15:08:14.825Z,41.36
2022-10-03T15:10:46.129Z,41.43
2022-10-03T15:13:19.786Z,41.46
2022-10-03T15:15:49.268Z,41.64
2022-10-03T15:18:21.581Z,41.64
2022-10-03T15:20:52.369Z,41.76
2022-10-03T15:23:27.456Z,41.74
2022-10-03T15:25:57.584Z,41.62
2022-10-03T15:28:29.800Z,41.49
2022-10-03T15:31:08.532Z,41.74
2022-10-03T15:33:39.455Z,41.59
2022-10-03T15:36:14.639Z,41.95
2022-10-03T15:38:47.488Z,41.78
2022-10-03T15:41:17.400Z,41.66
2022-10-03T15:43:53.472Z,41.59
2022-10-03T15:46:31.730Z,41.49
2022-10-03T15:49:02.449Z,41.84
2022-10-03T15:51:33.557Z,41.88
2022-10-03T15:54:09.258Z,41.53
2022-10-03T15:56:41.405Z,41.63
2022-10-03T15:59:16.992Z,41.79
2022-10-03T16:01:50.821Z,41.60
2022-10-03T16:04:21.803Z,41.51
2022-10-03T16:06:57.875Z,41.41
2022-10-03T16:09:33.063Z,41.67
2022-10-03T16:12:14.806Z,42.06
2022-10-03T16:14:44.425Z,42.07
2022-10-03T16:17:19.930Z,42.01
2022-10-03T16:19:54.189Z,41.84
2022-10-03T16:22:30.213Z,42.09
2022-10-03T16:25:14.178Z,41.85
2022-10-03T16:27:52.084Z,41.85
2022-10-03T16:30:23.350Z,42.07
2022-10-03T16:33:00.890Z,41.81
2022-10-03T16:35:35.563Z,41.91
2022-10-03T16:38:09.623Z,41.73
2022-10-03T16:40:39.737Z,41.85
2022-10-03T16:43:09.823Z,41.76
2022-10-03T16:45:42.976Z,41.50
2022-10-03T16:48:31.804Z,41.91
2022-10-03T16:51:02.337Z,41.69
2022-10-03T16:53:30.564Z,41.82
2022-10-03T16:56:05.996Z,41.92
2022-10-03T16:58:38.008Z,41.87
2022-10-03T17:01:27.259Z,41.53
2022-10-03T17:04:01.011Z,41.59
2022-10-03T17:06:32.233Z,41.64
2022-10-03T17:09:04.319Z,41.54
2022-10-03T17:11:38.590Z,41.54
2022-10-03T17:14:09.600Z,41.71
2022-10-03T17:16:45.118Z,41.77
2022-10-03T17:19:21.177Z,41.76
2022-10-03T17:21:54.793Z,41.78
2022-10-03T17:24:35.202Z,42.05
2022-10-03T17:27:12.101Z,41.88
2022-10-03T17:29:46.643Z,41.75
2022-10-03T17:32:22.191Z,41.95
2022-10-03T17:34:58.584Z,41.80
2022-10-03T17:37:52.158Z,41.67
2022-10-03T17:40:24.268Z,42.20
2022-10-03T17:42:57.440Z,41.77
2022-10-03T17:45:41.836Z,41.65
2022-10-03T17:48:17.222Z,42.04
2022-10-03T17:50:57.756Z,42.08
2022-10-03T17:53:30.159Z,42.06
2022-10-03T17:56:02.471Z,41.99
2022-10-03T17:58:33.243Z,42.19
2022-10-03T18:01:11.762Z,42.17
2022-10-03T18:03:48.433Z,42.11
2022-10-03T18:06:46.516Z,42.15
2022-10-03T18:09:29.724Z,42.04
2022-10-03T18:12:17.069Z,42.03
2022-10-03T18:15:05.414Z,42.38
2022-10-03T18:17:44.878Z,41.92
2022-10-03T18:20:28.580Z,41.93
2022-10-03T18:23:04.008Z,41.95
2022-10-03T18:26:08.134Z,42.11
2022-10-03T18:28:42.039Z,42.30
2022-10-03T18:31:16.956Z,42.12
2022-10-03T18:33:50.934Z,42.57
2022-10-03T18:36:31.539Z,42.46
2022-10-03T18:39:04.372Z,42.79
2022-10-03T18:41:33.794Z,42.92
2022-10-03T18:44:03.009Z,42.64
2022-10-03T18:46:40.858Z,42.99
2022-10-03T18:49:35.667Z,42.78
2022-10-03T18:52:14.736Z,42.84
2022-10-03T18:54:56.422Z,42.59
2022-10-03T18:57:31.345Z,42.39
2022-10-03T19:00:07.718Z,42.88
2022-10-03T19:02:43.644Z,42.72
2022-10-03T19:05:17.953Z,42.60
2022-10-03T19:07:52.863Z,42.31
2022-10-03T19:10:40.681Z,42.45
2022-10-03T19:13:17.854Z,42.43
2022-10-03T19:16:16.763Z,42.37
2022-10-03T19:18:57.195Z,42.65
2022-10-03T19:21:26.033Z,42.39
2022-10-03T19:24:02.952Z,42.26
2022-10-03T19:26:36.066Z,42.35
2022-10-03T19:29:07.570Z,42.29
2022-10-03T19:31:41.479Z,42.44
2022-10-03T19:34:21.733Z,42.07
2022-10-03T19:36:51.736Z,42.06
2022-10-03T19:39:21.722Z,42.22
2022-10-03T19:41:54.594Z,41.97
2022-10-03T19:44:26.685Z,42.24
2022-10-03T19:47:07.869Z,41.94
2022-10-03T19:49:47.438Z,42.33
2022-10-03T19:52:41.481Z,41.86
2022-10-03T19:55:15.870Z,42.12
2022-10-03T19:57:49.290Z,42.20
2022-10-03T20:00:27.052Z,41.69
2022-10-03T20:02:58.475Z,41.74
2022-10-03T20:05:34.022Z,41.83
2022-10-03T20:08:12.816Z,41.92
2022-10-03T20:10:49.566Z,41.77
2022-10-03T20:13:17.654Z,42.07
2022-10-03T20:15:47.951Z,41.68
2022-10-03T20:18:23.072Z,41.84
2022-10-03T20:20:56.061Z,41.57
2022-10-03T20:23:26.806Z,41.62
2022-10-03T20:26:00.625Z,41.34
2022-10-03T20:28:45.263Z,41.83
2022-10-03T20:31:22.683Z,41.65
2022-10-03T20:33:53.301Z,41.65
2022-10-03T20:36:27.086Z,41.62
2022-10-03T20:39:08.537Z,41.81
2022-10-03T20:41:47.600Z,41.77
2022-10-03T20:44:29.573Z,41.78
2022-10-03T20:47:05.514Z,41.63
2022-10-03T20:49:37.006Z,41.79
2022-10-03T20:52:08.653Z,41.53
2022-10-03T20:54:38.096Z,41.58
2022-10-03T20:57:15.206Z,41.89
2022-10-03T20:59:47.573Z,41.60
2022-10-03T21:02:25.228Z,41.65
2022-10-03T21:04:57.848Z,41.44
2022-10-03T21:07:40.202Z,41.48
2022-10-03T21:10:19.723Z,41.43
2022-10-03T21:12:49.966Z,41.79
2022-10-03T21:15:30.349Z,41.46
2022-10-03T21:17:59.233Z,41.31
2022-10-03T21:20:33.607Z,41.56
2022-10-03T21:23:08.196Z,41.24
2022-10-03T21:25:41.028Z,41.10
2022-10-03T21:28:24.207Z,41.09
2022-10-03T21:31:08.488Z,41.06
2022-10-03T21:33:42.785Z,40.99
2022-10-03T21:36:19.525Z,41.17
2022-10-03T21:38:51.368Z,41.09
2022-10-03T21:41:30.319Z,41.14
2022-10-03T21:44:00.625Z,41.04
2022-10-03T21:46:37.781Z,40.68
2022-10-03T21:49:26.077Z,40.67
2022-10-03T21:52:25.753Z,40.62
2022-10-03T21:55:06.478Z,40.75
2022-10-03T21:57:46.468Z,40.67
2022-10-03T22:00:17.559Z,40.74
2022-10-03T22:02:54.523Z,40.57
2022-10-03T22:05:31.128Z,40.42
2022-10-03T22:07:59.308Z,40.61
2022-10-03T22:10:32.509Z,40.29
2022-10-03T22:13:08.256Z,40.74
2022-10-03T22:15:44.668Z,40.29
2022-10-03T22:18:15.748Z,40.47
2022-10-03T22:20:54.842Z,40.67
2022-10-03T22:23:34.331Z,40.49
2022-10-03T22:26:17.802Z,40.21
2022-10-03T22:28:55.934Z,40.26
2022-10-03T22:31:31.007Z,40.31
2022-10-03T22:34:12.336Z,40.36
2022-10-03T22:36:41.545Z,40.10
2022-10-03T22:39:12.348Z,40.18
2022-10-03T22:41:44.484Z,40.19
2022-10-03T22:44:15.094Z,40.18
2022-10-03T22:46:46.956Z,40.03
2022-10-03T22:49:20.323Z,39.94
2022-10-03T22:51:51.541Z,39.87
2022-10-03T22:54:20.340Z,39.94
2022-10-03T22:56:54.123Z,39.66
2022-10-03T22:59:27.101Z,39.78
2022-10-03T23:01:58.349Z,39.96
2022-10-03T23:04:33.041Z,39.65
2022-10-03T23:07:23.393Z,39.66
2022-10-03T23:10:08.931Z,39.88
2022-10-03T23:12:43.110Z,39.62
2022-10-03T23:15:15.174Z,39.65
2022-10-03T23:18:01.526Z,39.41
2022-10-03T23:20:50.379Z,39.41
2022-10-03T23:23:23.004Z,39.64
2022-10-03T23:26:02.682Z,39.77
2022-10-03T23:28:43.710Z,39.40
2022-10-03T23:31:50.327Z,39.50
2022-10-03T23:34:48.021Z,39.69
2022-10-03T23:37:43.293Z,39.37
2022-10-03T23:40:28.968Z,39.80
2022-10-03T23:43:02.136Z,39.67
2022-10-03T23:45:31.148Z,39.71
2022-10-03T23:48:03.680Z,39.39
2022-10-03T23:50:42.378Z,39.37
2022-10-03T23:53:21.396Z,39.74
2022-10-03T23:55:49.521Z,39.30
2022-10-03T23:58:27.357Z,39.59
